Time;durP1;ratioP1;P1;durP2;ratioP2;P2;SDS_P1;SDS_P2;PMS_P1;PMS_P2;Temp;Humidity;BMP_temperature;BMP_pressure;BME280_temperature;BME280_humidity;BME280_pressure;Samples;Min_cycle;Max_cycle;Signal;HPM_P1;HPM_P2
2024/03/23 00:00:16;;;;;;;13.98;7.00;;;;;;;;;;5033792;28;20045;-59
2024/03/23 00:02:45;;;;;;;20.88;7.40;;;;;;;;;;5034224;28;20060;-60
2024/03/23 00:05:13;;;;;;;16.05;7.13;;;;;;;;;;5034272;28;20061;-60
2024/03/23 00:07:41;;;;;;;16.38;7.10;;;;;;;;;;5034052;28;20045;-59
2024/03/23 00:10:09;;;;;;;17.48;7.40;;;;;;;;;;5033139;28;20053;-60
2024/03/23 00:12:38;;;;;;;15.93;8.13;;;;;;;;;;5033501;28;20053;-60
2024/03/23 00:15:05;;;;;;;18.20;8.20;;;;;;;;;;5033883;28;20076;-60
2024/03/23 00:17:34;;;;;;;12.20;5.60;;;;;;;;;;5032507;28;20046;-60
2024/03/23 00:20:02;;;;;;;11.45;4.72;;;;;;;;;;5033018;28;20056;-60
2024/03/23 00:22:30;;;;;;;12.10;4.70;;;;;;;;;;5040495;28;20060;-59
2024/03/23 00:24:58;;;;;;;13.15;4.45;;;;;;;;;;5054184;28;20057;-59
2024/03/23 00:27:27;;;;;;;15.50;4.85;;;;;;;;;;5049377;28;20474;-59
2024/03/23 00:29:55;;;;;;;11.85;4.20;;;;;;;;;;5053605;28;20060;-61
2024/03/23 00:32:23;;;;;;;13.48;4.63;;;;;;;;;;5053483;28;20053;-61
2024/03/23 00:34:51;;;;;;;12.70;4.40;;;;;;;;;;5053135;28;20073;-61
2024/03/23 00:37:20;;;;;;;15.90;4.50;;;;;;;;;;5053486;28;20045;-59
2024/03/23 00:39:48;;;;;;;14.43;4.75;;;;;;;;;;5040903;28;20430;-60
2024/03/23 00:42:16;;;;;;;14.00;4.70;;;;;;;;;;5033132;28;20065;-61
2024/03/23 00:44:44;;;;;;;16.40;4.53;;;;;;;;;;5017750;28;20065;-59
2024/03/23 00:47:13;;;;;;;16.67;4.85;;;;;;;;;;5013665;28;20064;-59
2024/03/23 00:49:41;;;;;;;13.88;4.32;;;;;;;;;;5026839;28;20057;-61
2024/03/23 00:52:10;;;;;;;12.75;3.83;;;;;;;;;;5033356;28;20480;-59
2024/03/23 00:54:37;;;;;;;16.38;4.43;;;;;;;;;;5033410;28;20060;-59
2024/03/23 00:57:04;;;;;;;13.00;4.13;;;;;;;;;;5033155;28;20053;-60
2024/03/23 00:59:30;;;;;;;18.67;4.57;;;;;;;;;;5033188;28;20060;-59
2024/03/23 01:01:57;;;;;;;14.95;4.40;;;;;;;;;;5031726;28;20057;-59
2024/03/23 01:04:23;;;;;;;19.48;4.93;;;;;;;;;;5033228;28;20057;-59
2024/03/23 01:06:50;;;;;;;19.88;5.07;;;;;;;;;;5032131;28;20510;-59
2024/03/23 01:09:16;;;;;;;16.98;5.40;;;;;;;;;;5033337;28;20060;-59
2024/03/23 01:11:44;;;;;;;14.82;5.07;;;;;;;;;;5032751;28;20132;-59
2024/03/23 01:14:10;;;;;;;16.80;4.72;;;;;;;;;;5032500;28;20060;-59
2024/03/23 01:16:36;;;;;;;12.20;5.38;;;;;;;;;;5032502;28;20479;-61
2024/03/23 01:19:02;;;;;;;11.25;4.15;;;;;;;;;;5032420;28;20049;-61
2024/03/23 01:21:29;;;;;;;14.77;4.95;;;;;;;;;;5031476;28;20057;-61
2024/03/23 01:23:55;;;;;;;11.38;4.15;;;;;;;;;;5035570;28;20478;-60
2024/03/23 01:26:22;;;;;;;9.98;3.67;;;;;;;;;;5030972;28;20046;-60
2024/03/23 01:28:49;;;;;;;9.68;3.15;;;;;;;;;;5046297;28;20052;-60
2024/03/23 01:31:17;;;;;;;9.23;3.38;;;;;;;;;;5032390;28;20060;-61
2024/03/23 01:33:42;;;;;;;7.88;2.70;;;;;;;;;;5030845;28;20049;-61
2024/03/23 01:36:09;;;;;;;10.80;3.55;;;;;;;;;;5038810;28;20552;-60
2024/03/23 01:38:36;;;;;;;10.55;3.22;;;;;;;;;;5034417;28;20053;-61
2024/03/23 01:41:02;;;;;;;8.00;3.47;;;;;;;;;;5031686;28;20052;-61
2024/03/23 01:43:28;;;;;;;8.48;3.03;;;;;;;;;;5033839;28;20423;-60
2024/03/23 01:45:56;;;;;;;9.07;3.33;;;;;;;;;;5031879;28;20085;-61
2024/03/23 01:48:23;;;;;;;8.15;3.40;;;;;;;;;;5034942;28;20060;-61
2024/03/23 01:50:49;;;;;;;9.63;3.28;;;;;;;;;;5031946;28;20049;-60
2024/03/23 01:53:17;;;;;;;11.73;3.83;;;;;;;;;;5031855;28;20410;-61
2024/03/23 01:55:44;;;;;;;11.75;3.40;;;;;;;;;;5044097;28;20049;-61
2024/03/23 01:58:10;;;;;;;8.35;3.38;;;;;;;;;;5056148;28;20478;-61
2024/03/23 02:00:36;;;;;;;10.35;3.83;;;;;;;;;;5042904;28;20052;-60
2024/03/23 02:03:21;;;;;;;10.73;3.22;;;;;;;;;;5036088;28;20076;-61
2024/03/23 02:05:48;;;;;;;11.70;3.92;;;;;;;;;;5036233;28;20492;-60
2024/03/23 02:08:14;;;;;;;12.05;3.50;;;;;;;;;;5032686;28;20065;-61
2024/03/23 02:10:41;;;;;;;11.73;4.10;;;;;;;;;;5016783;28;20061;-60
2024/03/23 02:13:07;;;;;;;12.88;4.07;;;;;;;;;;5047386;28;20222;-61
2024/03/23 02:15:33;;;;;;;9.48;3.88;;;;;;;;;;5056328;28;20057;-61
2024/03/23 02:18:00;;;;;;;10.75;3.38;;;;;;;;;;5056069;28;20073;-61
2024/03/23 02:20:27;;;;;;;8.18;3.05;;;;;;;;;;5055668;28;20163;-60
2024/03/23 02:22:55;;;;;;;9.25;3.22;;;;;;;;;;5055953;28;20056;-60
2024/03/23 02:25:21;;;;;;;10.73;3.30;;;;;;;;;;5047101;28;20060;-60
2024/03/23 02:27:48;;;;;;;11.20;3.10;;;;;;;;;;5016287;28;20053;-60
2024/03/23 02:30:14;;;;;;;9.15;2.75;;;;;;;;;;5016057;28;20054;-60
2024/03/23 02:32:41;;;;;;;9.00;2.65;;;;;;;;;;5015532;28;20050;-60
2024/03/23 02:35:06;;;;;;;7.75;2.40;;;;;;;;;;5016407;28;20060;-60
2024/03/23 02:37:33;;;;;;;8.30;2.40;;;;;;;;;;5015757;28;20560;-60
2024/03/23 02:40:00;;;;;;;7.60;2.70;;;;;;;;;;5014960;28;20061;-61
2024/03/23 02:42:27;;;;;;;6.38;2.35;;;;;;;;;;5017549;28;20064;-60
2024/03/23 02:44:53;;;;;;;5.63;2.00;;;;;;;;;;5016005;28;20054;-61
2024/03/23 02:47:20;;;;;;;6.40;2.00;;;;;;;;;;5015629;28;20060;-61
2024/03/23 02:49:46;;;;;;;6.40;1.98;;;;;;;;;;5032410;28;20510;-60
2024/03/23 02:52:13;;;;;;;6.82;2.03;;;;;;;;;;5035310;28;20045;-61
2024/03/23 02:54:38;;;;;;;5.45;2.22;;;;;;;;;;5035568;28;20056;-61
2024/03/23 02:57:07;;;;;;;6.82;2.35;;;;;;;;;;5035319;28;20045;-60
2024/03/23 02:59:32;;;;;;;6.07;2.58;;;;;;;;;;5034540;28;20061;-60
2024/03/23 03:02:01;;;;;;;8.25;2.40;;;;;;;;;;5036495;28;20046;-60
2024/03/23 03:04:27;;;;;;;5.72;1.92;;;;;;;;;;5050496;28;20395;-60
2024/03/23 03:06:53;;;;;;;7.38;2.15;;;;;;;;;;5033497;28;20081;-59
2024/03/23 03:09:19;;;;;;;5.97;2.35;;;;;;;;;;5041911;28;20053;-61
2024/03/23 03:11:46;;;;;;;7.40;2.08;;;;;;;;;;5055029;28;20128;-61
2024/03/23 03:14:13;;;;;;;7.18;2.50;;;;;;;;;;5044270;28;20045;-60
2024/03/23 03:16:40;;;;;;;5.90;2.55;;;;;;;;;;5033939;28;20415;-60
2024/03/23 03:19:06;;;;;;;8.65;2.75;;;;;;;;;;5034877;28;20464;-61
2024/03/23 03:21:33;;;;;;;6.63;1.90;;;;;;;;;;5034824;28;20055;-60
2024/03/23 03:23:58;;;;;;;5.82;2.20;;;;;;;;;;5034883;28;20533;-60
2024/03/23 03:26:25;;;;;;;5.57;2.50;;;;;;;;;;5045151;28;20045;-61
2024/03/23 03:28:51;;;;;;;6.35;2.15;;;;;;;;;;5054754;28;20075;-60
2024/03/23 03:31:19;;;;;;;6.72;2.38;;;;;;;;;;5054632;28;20051;-61
2024/03/23 03:33:45;;;;;;;7.10;2.58;;;;;;;;;;5038455;28;20057;-60
2024/03/23 03:36:12;;;;;;;6.18;2.33;;;;;;;;;;5014897;28;20054;-60
2024/03/23 03:38:38;;;;;;;4.85;2.10;;;;;;;;;;5014936;28;20057;-60
2024/03/23 03:41:06;;;;;;;5.45;1.92;;;;;;;;;;5014154;28;20072;-60
2024/03/23 03:43:31;;;;;;;6.68;2.17;;;;;;;;;;5031918;28;20053;-60
2024/03/23 03:45:59;;;;;;;8.25;2.53;;;;;;;;;;5034581;28;20222;-60
2024/03/23 03:48:27;;;;;;;5.65;1.85;;;;;;;;;;5034567;28;20049;-60
2024/03/23 03:50:54;;;;;;;6.47;1.80;;;;;;;;;;5034023;28;20056;-60
2024/03/23 03:53:19;;;;;;;6.13;2.05;;;;;;;;;;5034588;28;20406;-61
2024/03/23 03:55:46;;;;;;;7.55;2.17;;;;;;;;;;5034097;28;20081;-60
2024/03/23 03:58:13;;;;;;;7.30;2.20;;;;;;;;;;5034221;28;20053;-60
2024/03/23 04:00:39;;;;;;;8.90;2.28;;;;;;;;;;5034000;28;20060;-61
2024/03/23 04:03:06;;;;;;;6.82;1.95;;;;;;;;;;5033564;28;20410;-60
2024/03/23 04:05:33;;;;;;;8.65;2.60;;;;;;;;;;5033718;28;20049;-60
2024/03/23 04:08:00;;;;;;;7.03;2.30;;;;;;;;;;5033000;28;20056;-60
2024/03/23 04:10:26;;;;;;;5.55;1.75;;;;;;;;;;5033929;28;20558;-60
2024/03/23 04:12:53;;;;;;;7.97;2.33;;;;;;;;;;5033634;28;20060;-60
2024/03/23 04:15:19;;;;;;;6.95;2.28;;;;;;;;;;5033337;28;20064;-60
2024/03/23 04:17:46;;;;;;;10.52;2.53;;;;;;;;;;5033059;28;20045;-61
2024/03/23 04:20:14;;;;;;;7.03;2.30;;;;;;;;;;5033269;28;20057;-60
2024/03/23 04:22:42;;;;;;;7.18;2.20;;;;;;;;;;5033116;28;20380;-61
2024/03/23 04:25:07;;;;;;;5.65;2.30;;;;;;;;;;5033224;28;20053;-60
2024/03/23 04:27:35;;;;;;;9.02;2.47;;;;;;;;;;5033273;28;20076;-60
2024/03/23 04:30:01;;;;;;;9.25;2.38;;;;;;;;;;5032226;28;20049;-61
2024/03/23 04:32:28;;;;;;;8.32;2.38;;;;;;;;;;5033751;28;20072;-60
2024/03/23 04:34:54;;;;;;;9.75;2.83;;;;;;;;;;5050341;28;20052;-61
2024/03/23 04:37:21;;;;;;;7.93;2.63;;;;;;;;;;5045664;28;20072;-60
2024/03/23 04:39:49;;;;;;;7.88;2.85;;;;;;;;;;5047020;28;20049;-60
2024/03/23 04:42:16;;;;;;;8.20;3.10;;;;;;;;;;5035747;28;20054;-60
2024/03/23 04:44:43;;;;;;;8.63;2.63;;;;;;;;;;5053352;28;20060;-60
2024/03/23 04:47:10;;;;;;;8.18;2.90;;;;;;;;;;5053059;28;20060;-60
2024/03/23 04:49:37;;;;;;;9.20;3.03;;;;;;;;;;5040729;28;20053;-60
2024/03/23 04:52:04;;;;;;;6.65;2.83;;;;;;;;;;5033611;28;20057;-60
2024/03/23 04:54:32;;;;;;;8.95;3.13;;;;;;;;;;5034399;28;20057;-61
2024/03/23 04:57:00;;;;;;;7.88;3.05;;;;;;;;;;5052678;28;20064;-60
2024/03/23 04:59:26;;;;;;;8.40;2.75;;;;;;;;;;5025589;28;20057;-60
2024/03/23 05:01:53;;;;;;;7.85;3.13;;;;;;;;;;5013311;28;20054;-60
2024/03/23 05:04:18;;;;;;;7.15;2.55;;;;;;;;;;5013100;28;20062;-59
2024/03/23 05:06:45;;;;;;;8.80;2.88;;;;;;;;;;5012764;28;20446;-60
2024/03/23 05:09:11;;;;;;;9.07;2.95;;;;;;;;;;5013247;28;20054;-60
2024/03/23 05:11:38;;;;;;;11.75;2.83;;;;;;;;;;5012863;28;20046;-59
2024/03/23 05:14:05;;;;;;;8.43;3.00;;;;;;;;;;5030074;28;20061;-60
2024/03/23 05:16:32;;;;;;;9.02;2.38;;;;;;;;;;5018978;28;20057;-60
2024/03/23 05:18:58;;;;;;;8.65;3.10;;;;;;;;;;5013505;28;20061;-60
2024/03/23 05:21:25;;;;;;;8.77;3.22;;;;;;;;;;5012666;28;20050;-60
2024/03/23 05:23:51;;;;;;;11.68;3.13;;;;;;;;;;5013020;28;20053;-60
2024/03/23 05:26:18;;;;;;;10.00;2.97;;;;;;;;;;5012385;28;20506;-60
2024/03/23 05:28:43;;;;;;;9.88;2.85;;;;;;;;;;5012687;28;20388;-60
2024/03/23 05:31:11;;;;;;;12.57;3.20;;;;;;;;;;5014177;28;20133;-60
2024/03/23 05:33:38;;;;;;;10.52;3.03;;;;;;;;;;5017367;28;20057;-59
2024/03/23 05:36:05;;;;;;;8.38;2.83;;;;;;;;;;5012284;28;20514;-60
2024/03/23 05:38:30;;;;;;;8.52;3.33;;;;;;;;;;5013052;28;20049;-60
2024/03/23 05:40:58;;;;;;;13.52;4.03;;;;;;;;;;5012275;28;20053;-60
2024/03/23 05:43:24;;;;;;;13.57;3.55;;;;;;;;;;5028210;28;20045;-60
2024/03/23 05:45:54;;;;;;;8.38;3.58;;;;;;;;;;5032103;28;20056;-60
2024/03/23 05:48:21;;;;;;;11.45;4.00;;;;;;;;;;5035267;28;20049;-60
2024/03/23 05:50:48;;;;;;;10.95;4.10;;;;;;;;;;5037857;28;20418;-60
2024/03/23 05:53:14;;;;;;;9.75;3.63;;;;;;;;;;5052455;28;20063;-60
2024/03/23 05:55:41;;;;;;;12.13;3.95;;;;;;;;;;5034744;28;20045;-60
2024/03/23 05:58:08;;;;;;;9.27;3.95;;;;;;;;;;5031947;28;20061;-60
2024/03/23 06:00:34;;;;;;;10.18;4.20;;;;;;;;;;5032108;28;20520;-60
2024/03/23 06:03:00;;;;;;;12.88;4.60;;;;;;;;;;5032432;28;20057;-60
2024/03/23 06:05:27;;;;;;;12.40;4.47;;;;;;;;;;5032143;28;20053;-59
2024/03/23 06:07:54;;;;;;;16.55;4.65;;;;;;;;;;5031172;28;20049;-60
2024/03/23 06:10:20;;;;;;;14.13;5.70;;;;;;;;;;5031934;28;20049;-60
2024/03/23 06:12:48;;;;;;;10.30;4.10;;;;;;;;;;5031997;28;20056;-60
2024/03/23 06:15:14;;;;;;;12.57;4.88;;;;;;;;;;5031705;28;20053;-60
2024/03/23 06:17:41;;;;;;;11.05;5.57;;;;;;;;;;5032005;28;20498;-60
2024/03/23 06:20:07;;;;;;;11.07;5.03;;;;;;;;;;5032270;28;20050;-60
2024/03/23 06:22:35;;;;;;;13.73;5.22;;;;;;;;;;5032105;28;20057;-60
2024/03/23 06:25:01;;;;;;;12.75;5.22;;;;;;;;;;5031119;28;20049;-60
2024/03/23 06:27:28;;;;;;;10.13;4.75;;;;;;;;;;5031738;28;20088;-60
2024/03/23 06:29:54;;;;;;;15.52;5.10;;;;;;;;;;5031544;28;20054;-60
2024/03/23 06:32:21;;;;;;;12.07;5.47;;;;;;;;;;5031546;28;20132;-59
2024/03/23 06:34:47;;;;;;;11.48;5.82;;;;;;;;;;5031722;28;20050;-60
2024/03/23 06:37:14;;;;;;;14.52;6.25;;;;;;;;;;5031130;28;20049;-60
2024/03/23 06:39:41;;;;;;;13.82;6.10;;;;;;;;;;5031414;28;20062;-60
2024/03/23 06:42:08;;;;;;;12.50;6.07;;;;;;;;;;5033854;28;20411;-60
2024/03/23 06:44:34;;;;;;;10.63;5.82;;;;;;;;;;5035002;28;20053;-60
2024/03/23 06:47:01;;;;;;;12.95;6.47;;;;;;;;;;5034686;28;20089;-60
2024/03/23 06:49:26;;;;;;;11.95;7.07;;;;;;;;;;5034975;28;20046;-60
2024/03/23 06:51:53;;;;;;;14.73;6.65;;;;;;;;;;5034662;28;20451;-60
2024/03/23 06:54:19;;;;;;;13.25;7.60;;;;;;;;;;5034115;28;20080;-59
2024/03/23 06:56:48;;;;;;;14.77;6.90;;;;;;;;;;5034601;28;20510;-59
2024/03/23 06:59:13;;;;;;;14.52;8.43;;;;;;;;;;5034793;28;20053;-59
2024/03/23 07:01:40;;;;;;;13.48;7.82;;;;;;;;;;5035522;28;20140;-59
2024/03/23 07:04:06;;;;;;;12.23;7.93;;;;;;;;;;5044762;28;20052;-59
2024/03/23 07:06:33;;;;;;;17.08;9.07;;;;;;;;;;5054769;28;20405;-59
2024/03/23 07:08:59;;;;;;;15.65;9.27;;;;;;;;;;5037730;28;20049;-59
2024/03/23 07:11:26;;;;;;;17.65;9.55;;;;;;;;;;5034763;28;20107;-60
2024/03/23 07:13:54;;;;;;;18.77;10.18;;;;;;;;;;5033590;28;20041;-60
2024/03/23 07:16:21;;;;;;;16.83;10.02;;;;;;;;;;5031903;28;20423;-60
2024/03/23 07:18:47;;;;;;;19.20;11.32;;;;;;;;;;5034764;28;20060;-60
2024/03/23 07:21:16;;;;;;;15.43;10.95;;;;;;;;;;5033850;28;20041;-60
2024/03/23 07:23:44;;;;;;;17.02;10.07;;;;;;;;;;5034699;28;20056;-59
2024/03/23 07:26:11;;;;;;;16.42;11.00;;;;;;;;;;5034557;28;20140;-59
2024/03/23 07:28:38;;;;;;;19.00;12.10;;;;;;;;;;5034145;28;20056;-59
2024/03/23 07:31:06;;;;;;;16.35;11.32;;;;;;;;;;5044684;28;20438;-60
2024/03/23 07:33:32;;;;;;;17.75;11.18;;;;;;;;;;5018700;28;20054;-60
2024/03/23 07:36:00;;;;;;;17.08;11.43;;;;;;;;;;5054258;28;20048;-60
2024/03/23 07:38:26;;;;;;;18.98;11.93;;;;;;;;;;5054153;28;20074;-59
2024/03/23 07:40:55;;;;;;;17.77;12.80;;;;;;;;;;5054038;28;20049;-60
2024/03/23 07:43:21;;;;;;;23.50;13.20;;;;;;;;;;5038144;28;20509;-60
2024/03/23 07:45:52;;;;;;;19.48;12.55;;;;;;;;;;5036573;28;20087;-60
2024/03/23 07:48:22;;;;;;;18.83;12.20;;;;;;;;;;5042353;28;20152;-60
2024/03/23 07:50:57;;;;;;;20.45;12.68;;;;;;;;;;5033898;28;20049;-60
2024/03/23 07:53:22;;;;;;;18.65;12.35;;;;;;;;;;5032688;28;20060;-60
2024/03/23 07:55:53;;;;;;;18.40;11.88;;;;;;;;;;5033372;28;20049;-60
2024/03/23 07:58:20;;;;;;;16.48;11.05;;;;;;;;;;5033891;28;20053;-61
2024/03/23 08:00:45;;;;;;;17.00;11.50;;;;;;;;;;5033472;28;20045;-60
2024/03/23 08:03:12;;;;;;;15.45;11.05;;;;;;;;;;5033647;28;20060;-61
2024/03/23 08:05:39;;;;;;;15.93;10.82;;;;;;;;;;5026859;28;20423;-60
2024/03/23 08:08:06;;;;;;;15.98;10.75;;;;;;;;;;5028045;28;20053;-60
2024/03/23 08:10:32;;;;;;;14.75;9.48;;;;;;;;;;5033770;28;20049;-60
2024/03/23 08:12:59;;;;;;;15.32;9.40;;;;;;;;;;5033232;28;20137;-59
2024/03/23 08:15:25;;;;;;;11.90;8.50;;;;;;;;;;5030309;28;20064;-60
2024/03/23 08:17:51;;;;;;;12.57;8.82;;;;;;;;;;5031953;28;20156;-60
2024/03/23 08:20:17;;;;;;;14.32;8.85;;;;;;;;;;5035479;28;20060;-60
2024/03/23 08:22:45;;;;;;;11.80;8.38;;;;;;;;;;5027525;28;20077;-60
2024/03/23 08:25:11;;;;;;;11.20;7.00;;;;;;;;;;5033434;28;20498;-60
2024/03/23 08:27:38;;;;;;;10.68;7.80;;;;;;;;;;5032954;28;20046;-61
2024/03/23 08:30:04;;;;;;;11.27;7.20;;;;;;;;;;5032979;28;20379;-60
2024/03/23 08:32:31;;;;;;;12.25;7.50;;;;;;;;;;5032771;28;20064;-59
2024/03/23 08:34:57;;;;;;;12.85;6.63;;;;;;;;;;5032752;28;20069;-59
2024/03/23 08:37:24;;;;;;;11.50;5.90;;;;;;;;;;5031107;28;20042;-60
2024/03/23 08:39:52;;;;;;;12.18;6.40;;;;;;;;;;5031727;28;20141;-60
2024/03/23 08:42:19;;;;;;;12.63;6.38;;;;;;;;;;5032376;28;20049;-59
2024/03/23 08:44:49;;;;;;;10.98;5.60;;;;;;;;;;5032847;28;20049;-59
2024/03/23 08:47:15;;;;;;;12.38;5.68;;;;;;;;;;5031547;28;20060;-59
2024/03/23 08:49:42;;;;;;;9.02;5.22;;;;;;;;;;5032122;28;20054;-60
2024/03/23 08:52:07;;;;;;;11.90;5.30;;;;;;;;;;5032172;28;20053;-60
2024/03/23 08:54:34;;;;;;;9.40;4.55;;;;;;;;;;5031468;28;20055;-60
2024/03/23 08:57:01;;;;;;;14.93;5.68;;;;;;;;;;5021901;28;20061;-60
2024/03/23 08:59:28;;;;;;;10.45;4.68;;;;;;;;;;5028806;28;20060;-60
2024/03/23 09:01:54;;;;;;;9.52;4.15;;;;;;;;;;5031744;28;20053;-60
2024/03/23 09:04:21;;;;;;;8.57;4.20;;;;;;;;;;5031225;28;20052;-60
2024/03/23 09:06:47;;;;;;;8.60;3.78;;;;;;;;;;5031787;28;20064;-60
2024/03/23 09:09:14;;;;;;;12.35;4.28;;;;;;;;;;5031484;28;20053;-60
2024/03/23 09:11:39;;;;;;;12.38;3.92;;;;;;;;;;5030541;28;20048;-60
2024/03/23 09:14:08;;;;;;;10.25;3.80;;;;;;;;;;5025570;28;20045;-60
2024/03/23 09:16:34;;;;;;;10.15;4.50;;;;;;;;;;5030325;28;20076;-60
2024/03/23 09:19:01;;;;;;;9.57;3.60;;;;;;;;;;5030002;28;20068;-59
2024/03/23 09:21:27;;;;;;;9.43;4.00;;;;;;;;;;5034010;28;20422;-59
2024/03/23 09:23:54;;;;;;;10.00;3.65;;;;;;;;;;5031243;28;20080;-60
2024/03/23 09:26:20;;;;;;;10.05;3.67;;;;;;;;;;5031053;28;20053;-59
2024/03/23 09:28:49;;;;;;;10.80;3.95;;;;;;;;;;5031513;28;20077;-60
2024/03/23 09:31:17;;;;;;;8.45;3.50;;;;;;;;;;5029230;28;20046;-60
2024/03/23 09:33:43;;;;;;;10.23;4.10;;;;;;;;;;5031519;28;20057;-59
2024/03/23 09:36:09;;;;;;;5.70;3.03;;;;;;;;;;5031525;28;20076;-58
2024/03/23 09:38:36;;;;;;;10.40;3.55;;;;;;;;;;5031475;28;20097;-58
2024/03/23 09:41:07;;;;;;;9.15;3.35;;;;;;;;;;5031391;28;20049;-59
2024/03/23 09:43:34;;;;;;;7.18;3.00;;;;;;;;;;5030863;28;20045;-59
2024/03/23 09:45:59;;;;;;;7.68;2.70;;;;;;;;;;4977752;28;1528570;-59
2024/03/23 09:48:28;;;;;;;8.65;2.60;;;;;;;;;;5031193;28;20080;-59
2024/03/23 09:50:53;;;;;;;6.50;2.22;;;;;;;;;;5031835;28;20379;-59
2024/03/23 09:53:22;;;;;;;7.93;2.28;;;;;;;;;;5031945;28;20049;-59
2024/03/23 09:55:48;;;;;;;4.53;2.05;;;;;;;;;;5031508;28;20053;-60
2024/03/23 09:58:17;;;;;;;4.80;2.17;;;;;;;;;;5032039;28;20060;-59
2024/03/23 10:00:43;;;;;;;5.25;1.85;;;;;;;;;;5031730;28;20049;-59
2024/03/23 10:03:11;;;;;;;5.28;2.35;;;;;;;;;;5031668;28;20056;-59
2024/03/23 10:05:38;;;;;;;6.50;2.60;;;;;;;;;;5032586;28;20121;-59
2024/03/23 10:08:18;;;;;;;5.78;2.53;;;;;;;;;;5032019;28;20050;-59
2024/03/23 10:10:43;;;;;;;;;;;;;;;;;;5032155;28;20057;-60
2024/03/23 10:13:12;;;;;;;7.57;2.90;;;;;;;;;;5031723;28;19918;-60
2024/03/23 10:15:38;;;;;;;6.22;2.40;;;;;;;;;;5029090;28;20068;-60
2024/03/23 10:18:18;;;;;;;5.65;2.28;;;;;;;;;;5046353;28;20379;-61
2024/03/23 10:20:44;;;;;;;;;;;;;;;;;;5039906;28;20060;-61
2024/03/23 10:23:16;;;;;;;5.90;2.15;;;;;;;;;;5024081;28;20387;-60
2024/03/23 10:25:42;;;;;;;6.15;2.38;;;;;;;;;;5035576;28;20060;-60
2024/03/23 10:28:09;;;;;;;6.13;2.90;;;;;;;;;;5034848;28;20053;-60
2024/03/23 10:30:35;;;;;;;5.85;3.08;;;;;;;;;;5034936;28;20528;-60
2024/03/23 10:33:08;;;;;;;5.75;2.47;;;;;;;;;;5035643;28;20057;-60
2024/03/23 10:35:34;;;;;;;5.38;2.58;;;;;;;;;;5035333;28;20058;-60
2024/03/23 10:38:01;;;;;;;5.47;2.58;;;;;;;;;;5035831;28;20049;-61
2024/03/23 10:40:29;;;;;;;7.82;2.88;;;;;;;;;;5034984;28;20045;-60
2024/03/23 10:42:58;;;;;;;5.40;2.27;;;;;;;;;;5037135;28;20494;-60
2024/03/23 10:45:24;;;;;;;5.20;2.40;;;;;;;;;;5038217;28;20062;-60
2024/03/23 10:47:51;;;;;;;6.10;2.50;;;;;;;;;;5035195;28;20482;-59
2024/03/23 10:50:17;;;;;;;7.35;3.08;;;;;;;;;;5034560;28;20402;-59
2024/03/23 10:52:46;;;;;;;3.97;1.73;;;;;;;;;;5035584;28;20053;-58
2024/03/23 10:55:13;;;;;;;;;;;;;;;;;;5031636;28;20057;-59
2024/03/23 10:57:43;;;;;;;5.65;2.47;;;;;;;;;;5029718;28;19924;-58
2024/03/23 11:00:11;;;;;;;6.68;2.85;;;;;;;;;;5034279;28;20510;-60
2024/03/23 11:02:37;;;;;;;6.78;2.85;;;;;;;;;;5034160;28;20049;-58
2024/03/23 11:05:26;;;;;;;5.13;2.47;;;;;;;;;;5026230;28;20510;-59
2024/03/23 11:07:52;;;;;;;5.53;2.03;;;;;;;;;;5033143;28;20060;-58
2024/03/23 11:10:25;;;;;;;4.47;1.83;;;;;;;;;;5034277;28;20076;-59
2024/03/23 11:12:53;;;;;;;5.53;2.00;;;;;;;;;;5025322;28;20061;-59
2024/03/23 11:15:19;;;;;;;6.00;2.00;;;;;;;;;;5028974;28;20050;-59
2024/03/23 11:18:01;;;;;;;4.45;2.00;;;;;;;;;;5033767;28;20065;-59
2024/03/23 11:20:32;;;;;;;4.97;1.92;;;;;;;;;;5033744;28;20065;-59
2024/03/23 11:22:59;;;;;;;4.43;1.70;;;;;;;;;;5048120;28;20060;-58
2024/03/23 11:25:26;;;;;;;3.78;1.67;;;;;;;;;;5039161;28;20060;-58
2024/03/23 11:27:54;;;;;;;6.65;1.90;;;;;;;;;;5033573;28;20058;-58
2024/03/23 11:30:22;;;;;;;3.25;0.80;;;;;;;;;;5023089;28;20054;-58
2024/03/23 11:32:48;;;;;;;2.42;0.70;;;;;;;;;;5033895;28;20053;-58
2024/03/23 11:35:31;;;;;;;1.75;0.63;;;;;;;;;;5033842;28;20045;-58
2024/03/23 11:38:03;;;;;;;2.20;0.70;;;;;;;;;;5033759;28;20053;-58
2024/03/23 11:40:30;;;;;;;3.63;0.60;;;;;;;;;;5032770;28;20064;-58
2024/03/23 11:42:58;;;;;;;2.67;0.70;;;;;;;;;;5033657;28;20121;-58
2024/03/23 11:45:24;;;;;;;2.55;0.80;;;;;;;;;;5033222;28;20065;-58
2024/03/23 11:48:01;;;;;;;2.38;1.10;;;;;;;;;;5033351;28;20049;-58
2024/03/23 11:50:28;;;;;;;2.60;0.93;;;;;;;;;;5033322;28;20042;-58
2024/03/23 11:53:05;;;;;;;3.05;1.20;;;;;;;;;;5034053;28;20438;-58
2024/03/23 11:55:39;;;;;;;4.60;1.27;;;;;;;;;;5033967;28;20045;-58
2024/03/23 11:58:06;;;;;;;3.10;1.00;;;;;;;;;;5031646;28;20068;-59
2024/03/23 12:00:33;;;;;;;2.72;1.23;;;;;;;;;;5036809;28;20064;-59
2024/03/23 12:03:00;;;;;;;2.72;1.02;;;;;;;;;;5032216;28;20061;-60
2024/03/23 12:05:27;;;;;;;3.38;1.13;;;;;;;;;;5014119;28;20060;-60
2024/03/23 12:07:53;;;;;;;2.85;1.23;;;;;;;;;;5014212;28;20076;-59
2024/03/23 12:10:20;;;;;;;3.03;1.50;;;;;;;;;;5013693;28;20132;-60
2024/03/23 12:12:46;;;;;;;3.22;1.10;;;;;;;;;;5013422;28;20599;-60
2024/03/23 12:15:15;;;;;;;3.00;1.42;;;;;;;;;;5015436;28;20058;-59
2024/03/23 12:17:41;;;;;;;2.72;1.20;;;;;;;;;;5033854;28;20050;-59
2024/03/23 12:20:08;;;;;;;4.97;2.63;;;;;;;;;;5030984;28;20136;-59
2024/03/23 12:22:35;;;;;;;2.88;1.60;;;;;;;;;;5014210;28;20053;-60
2024/03/23 12:25:01;;;;;;;3.20;1.45;;;;;;;;;;5013667;28;20511;-59
2024/03/23 12:27:28;;;;;;;3.25;1.48;;;;;;;;;;5012849;28;20049;-59
2024/03/23 12:29:54;;;;;;;4.32;1.52;;;;;;;;;;5013763;28;20077;-60
2024/03/23 12:32:22;;;;;;;3.88;1.40;;;;;;;;;;5013211;28;20054;-60
2024/03/23 12:34:47;;;;;;;3.33;1.10;;;;;;;;;;5013668;28;20054;-60
2024/03/23 12:37:15;;;;;;;3.72;1.10;;;;;;;;;;5013373;28;20384;-60
2024/03/23 12:39:41;;;;;;;3.65;1.60;;;;;;;;;;5012773;28;20061;-60
2024/03/23 12:42:08;;;;;;;3.45;1.33;;;;;;;;;;5018413;28;20073;-60
2024/03/23 12:44:34;;;;;;;4.63;1.38;;;;;;;;;;5033137;28;20410;-59
2024/03/23 12:47:00;;;;;;;4.22;1.40;;;;;;;;;;5041714;28;20049;-59
2024/03/23 12:49:28;;;;;;;3.58;1.20;;;;;;;;;;5052758;28;20076;-59
2024/03/23 12:51:56;;;;;;;2.88;1.10;;;;;;;;;;5052676;28;20067;-59
2024/03/23 12:54:22;;;;;;;4.38;1.25;;;;;;;;;;5047443;28;20493;-60
2024/03/23 12:56:48;;;;;;;4.22;1.50;;;;;;;;;;5032923;28;20056;-59
2024/03/23 12:59:14;;;;;;;2.65;1.30;;;;;;;;;;5032672;28;20054;-59
2024/03/23 13:01:41;;;;;;;5.00;1.38;;;;;;;;;;5044639;28;20076;-59
2024/03/23 13:04:07;;;;;;;3.13;1.20;;;;;;;;;;5033230;28;20061;-59
2024/03/23 13:06:36;;;;;;;3.05;0.82;;;;;;;;;;5039078;28;20060;-59
2024/03/23 13:09:05;;;;;;;2.83;1.10;;;;;;;;;;5052783;28;20474;-59
2024/03/23 13:11:32;;;;;;;2.70;0.88;;;;;;;;;;5045623;28;20049;-59
2024/03/23 13:13:57;;;;;;;3.38;1.17;;;;;;;;;;5032681;28;20410;-59
2024/03/23 13:16:24;;;;;;;4.78;1.30;;;;;;;;;;5031786;28;20053;-59
2024/03/23 13:18:51;;;;;;;3.67;1.25;;;;;;;;;;5039421;28;20048;-59
2024/03/23 13:21:18;;;;;;;4.47;1.55;;;;;;;;;;5052624;28;20049;-59
2024/03/23 13:23:48;;;;;;;4.78;1.15;;;;;;;;;;5052854;28;20064;-59
2024/03/23 13:26:15;;;;;;;4.18;1.92;;;;;;;;;;5052532;28;20049;-59
2024/03/23 13:28:41;;;;;;;2.58;1.70;;;;;;;;;;5044523;28;20079;-59
2024/03/23 13:31:08;;;;;;;3.55;1.40;;;;;;;;;;5032079;28;20055;-59
2024/03/23 13:33:34;;;;;;;3.00;1.50;;;;;;;;;;5032316;28;20053;-59
2024/03/23 13:36:01;;;;;;;2.65;1.27;;;;;;;;;;5032991;28;20493;-60
2024/03/23 13:38:27;;;;;;;3.40;1.23;;;;;;;;;;5031903;28;20076;-59
2024/03/23 13:40:56;;;;;;;3.20;1.40;;;;;;;;;;5032012;28;20071;-60
2024/03/23 13:43:23;;;;;;;3.03;1.08;;;;;;;;;;5031867;28;20054;-59
2024/03/23 13:45:51;;;;;;;3.30;1.50;;;;;;;;;;5030764;28;20053;-59
2024/03/23 13:48:17;;;;;;;3.08;1.33;;;;;;;;;;5032028;28;20057;-59
2024/03/23 13:50:44;;;;;;;3.42;1.70;;;;;;;;;;5035653;28;20049;-59
2024/03/23 13:53:10;;;;;;;3.28;1.48;;;;;;;;;;5035653;28;20050;-59
2024/03/23 13:55:37;;;;;;;2.90;1.42;;;;;;;;;;5044713;28;20399;-59
2024/03/23 13:58:04;;;;;;;3.38;1.35;;;;;;;;;;5056499;28;20490;-59
2024/03/23 14:00:32;;;;;;;3.83;1.50;;;;;;;;;;5056624;28;20499;-59
2024/03/23 14:02:58;;;;;;;5.05;1.60;;;;;;;;;;5045847;28;20384;-59
2024/03/23 14:05:26;;;;;;;3.10;1.80;;;;;;;;;;5035675;28;20060;-59
2024/03/23 14:07:51;;;;;;;3.05;1.15;;;;;;;;;;5035068;28;20057;-59
2024/03/23 14:10:18;;;;;;;4.63;1.33;;;;;;;;;;5034925;28;20128;-59
2024/03/23 14:12:44;;;;;;;4.15;1.30;;;;;;;;;;5039317;28;20045;-59
2024/03/23 14:15:12;;;;;;;4.28;1.55;;;;;;;;;;5037781;28;20380;-59
2024/03/23 14:17:38;;;;;;;4.68;1.40;;;;;;;;;;5036253;28;20050;-59
2024/03/23 14:20:06;;;;;;;3.20;1.30;;;;;;;;;;5032630;28;20041;-59
2024/03/23 14:22:32;;;;;;;3.50;1.23;;;;;;;;;;5035322;28;20053;-59
2024/03/23 14:24:59;;;;;;;3.55;1.40;;;;;;;;;;5035673;28;20045;-59
2024/03/23 14:27:24;;;;;;;3.40;1.30;;;;;;;;;;5035082;28;20053;-59
2024/03/23 14:29:51;;;;;;;3.38;1.27;;;;;;;;;;5034593;28;20103;-59
2024/03/23 14:32:18;;;;;;;4.60;1.45;;;;;;;;;;5035398;28;20060;-59
2024/03/23 14:34:46;;;;;;;4.15;1.55;;;;;;;;;;5035456;28;20045;-59
2024/03/23 14:37:12;;;;;;;4.97;1.60;;;;;;;;;;5035470;28;20068;-59